Time;durP1;ratioP1;P1;durP2;ratioP2;P2;SDS_P1;SDS_P2;PMS_P1;PMS_P2;Temp;Humidity;BMP_temperature;BMP_pressure;BME280_temperature;BME280_humidity;BME280_pressure;Samples;Min_cycle;Max_cycle;Signal;HPM_P1;HPM_P2
2024/01/13 00:02:20;;;;;;;8.38;4.25;;;0.90;99.90;;;;;;5063270;28;20024;-73
2024/01/13 00:04:46;;;;;;;7.50;4.03;;;0.90;99.90;;;;;;5053794;28;20486;-72
2024/01/13 00:07:12;;;;;;;7.68;4.30;;;1.00;99.90;;;;;;5062501;28;20082;-73
2024/01/13 00:09:37;;;;;;;9.55;4.22;;;1.00;99.90;;;;;;5063636;28;20656;-73
2024/01/13 00:12:04;;;;;;;10.48;4.95;;;0.90;99.90;;;;;;5061925;28;20044;-73
2024/01/13 00:14:30;;;;;;;7.28;3.80;;;0.90;99.90;;;;;;5054882;28;20467;-72
2024/01/13 00:16:56;;;;;;;7.93;4.28;;;0.90;99.90;;;;;;5063039;28;20036;-72
2024/01/13 00:19:21;;;;;;;7.10;4.07;;;0.80;99.90;;;;;;5070182;28;20065;-72
2024/01/13 00:21:47;;;;;;;9.20;4.38;;;0.90;99.90;;;;;;5064466;28;20039;-73
2024/01/13 00:24:13;;;;;;;8.02;3.95;;;0.90;99.90;;;;;;5056509;28;20056;-72
2024/01/13 00:26:38;;;;;;;8.43;4.40;;;0.90;99.90;;;;;;5066847;28;20123;-73
2024/01/13 00:29:04;;;;;;;8.80;4.78;;;0.90;99.90;;;;;;5057401;28;20450;-72
2024/01/13 00:31:30;;;;;;;9.05;5.18;;;0.90;99.90;;;;;;5070708;28;20036;-72
2024/01/13 00:33:55;;;;;;;8.18;4.22;;;1.10;99.90;;;;;;5063767;28;20462;-72
2024/01/13 00:36:21;;;;;;;10.43;5.03;;;1.00;99.90;;;;;;5058205;28;20483;-72
2024/01/13 00:38:47;;;;;;;8.77;4.75;;;0.90;99.90;;;;;;5059784;28;20429;-73
2024/01/13 00:41:13;;;;;;;8.18;4.40;;;0.90;99.90;;;;;;5075978;28;20666;-72
2024/01/13 00:43:38;;;;;;;8.70;4.22;;;0.90;99.90;;;;;;5065805;28;20020;-73
2024/01/13 00:46:05;;;;;;;7.55;4.35;;;0.90;99.90;;;;;;5073734;28;20024;-73
2024/01/13 00:48:30;;;;;;;7.60;3.95;;;0.80;99.90;;;;;;5063993;28;20090;-72
2024/01/13 00:50:56;;;;;;;8.73;4.10;;;0.90;99.90;;;;;;5059695;28;20037;-72
2024/01/13 00:53:22;;;;;;;7.68;4.13;;;1.00;99.90;;;;;;5064449;28;20130;-73
2024/01/13 00:55:47;;;;;;;6.97;4.50;;;0.90;99.90;;;;;;5064742;28;20039;-72
2024/01/13 00:58:13;;;;;;;7.72;4.40;;;1.00;99.90;;;;;;5068057;28;20044;-72
2024/01/13 01:00:38;;;;;;;8.60;4.50;;;0.90;99.90;;;;;;5065606;28;24387;-73
2024/01/13 01:03:04;;;;;;;7.60;3.90;;;0.80;99.90;;;;;;5060551;28;20107;-73
2024/01/13 01:05:30;;;;;;;8.50;4.28;;;0.80;99.90;;;;;;5070750;28;20107;-72
2024/01/13 01:07:55;;;;;;;7.00;4.35;;;0.80;99.90;;;;;;5068672;28;20129;-73
2024/01/13 01:10:21;;;;;;;9.13;4.57;;;0.80;99.90;;;;;;5073969;28;20128;-73
2024/01/13 01:12:47;;;;;;;8.32;4.53;;;0.80;99.90;;;;;;5067208;28;20044;-72
2024/01/13 01:15:12;;;;;;;8.68;4.25;;;0.70;99.90;;;;;;5070148;28;20031;-72
2024/01/13 01:17:38;;;;;;;11.13;5.07;;;0.60;99.90;;;;;;5068339;28;20057;-72
2024/01/13 01:20:05;;;;;;;8.27;4.55;;;0.60;99.90;;;;;;5069632;28;20566;-72
2024/01/13 01:22:30;;;;;;;7.00;4.53;;;0.50;99.90;;;;;;5067840;28;20082;-72
2024/01/13 01:24:56;;;;;;;8.45;5.22;;;0.40;99.90;;;;;;5062241;28;20036;-72
2024/01/13 01:27:22;;;;;;;9.95;4.78;;;0.40;99.90;;;;;;5062504;28;20044;-72
2024/01/13 01:29:47;;;;;;;9.07;4.47;;;0.50;99.90;;;;;;5058991;28;20490;-72
2024/01/13 01:32:13;;;;;;;8.93;4.28;;;0.60;99.90;;;;;;5069884;28;20086;-72
2024/01/13 01:34:38;;;;;;;8.07;4.90;;;0.70;99.90;;;;;;5072829;28;20076;-72
2024/01/13 01:37:04;;;;;;;9.30;4.88;;;0.70;99.90;;;;;;5073942;28;20445;-73
2024/01/13 01:39:30;;;;;;;7.93;4.25;;;0.80;99.90;;;;;;5068364;28;20826;-72
2024/01/13 01:41:56;;;;;;;9.30;3.95;;;0.70;99.90;;;;;;5062301;28;20115;-72
2024/01/13 01:44:21;;;;;;;9.95;5.20;;;0.60;99.90;;;;;;5059337;28;20464;-73
2024/01/13 01:46:48;;;;;;;7.97;4.45;;;0.70;99.90;;;;;;5062123;28;20054;-72
2024/01/13 01:49:16;;;;;;;8.45;4.28;;;0.80;99.90;;;;;;5072901;28;20032;-72
2024/01/13 01:51:42;;;;;;;8.40;4.70;;;0.80;99.90;;;;;;5066598;28;20040;-72
2024/01/13 01:54:09;;;;;;;8.98;4.43;;;0.80;99.90;;;;;;5054600;28;20143;-73
2024/01/13 01:56:36;;;;;;;8.02;4.82;;;0.80;99.90;;;;;;5054584;28;20040;-73
2024/01/13 01:59:02;;;;;;;6.75;3.85;;;0.70;99.90;;;;;;5055485;28;20086;-73
2024/01/13 02:01:32;;;;;;;9.07;4.82;;;0.80;99.90;;;;;;5062583;28;20040;-72
2024/01/13 02:04:00;;;;;;;10.50;5.28;;;0.80;99.90;;;;;;5058993;28;20032;-72
2024/01/13 02:06:26;;;;;;;8.52;4.28;;;0.80;99.90;;;;;;5056783;28;20028;-73
2024/01/13 02:08:52;;;;;;;7.80;4.32;;;0.90;99.90;;;;;;5055683;28;20555;-72
2024/01/13 02:11:19;;;;;;;6.90;3.83;;;0.90;99.90;;;;;;5054833;28;20070;-72
2024/01/13 02:13:46;;;;;;;8.25;4.47;;;0.80;99.90;;;;;;5070556;28;20036;-73
2024/01/13 02:16:12;;;;;;;9.95;4.38;;;0.80;99.90;;;;;;5073351;28;20040;-72
2024/01/13 02:18:38;;;;;;;9.73;4.38;;;0.80;99.90;;;;;;5074057;28;20032;-73
2024/01/13 02:21:04;;;;;;;7.93;4.22;;;0.80;99.90;;;;;;5059244;28;20035;-73
2024/01/13 02:23:30;;;;;;;9.88;5.20;;;0.60;99.90;;;;;;5060793;28;20390;-72
2024/01/13 02:25:56;;;;;;;10.18;4.22;;;0.30;99.90;;;;;;5073400;28;20032;-73
2024/01/13 02:28:21;;;;;;;9.05;5.05;;;0.10;99.90;;;;;;5064251;28;20028;-72
2024/01/13 02:30:47;;;;;;;9.95;4.90;;;0.10;99.90;;;;;;5064720;28;20017;-73
2024/01/13 02:33:13;;;;;;;10.70;4.63;;;0.10;99.90;;;;;;5061775;28;20041;-72
2024/01/13 02:35:38;;;;;;;9.02;4.55;;;0.30;99.90;;;;;;5069572;28;20101;-72
2024/01/13 02:38:04;;;;;;;9.77;4.88;;;0.40;99.90;;;;;;5068167;28;20042;-73
2024/01/13 02:40:30;;;;;;;7.20;4.07;;;0.40;99.90;;;;;;5057741;28;20510;-72
2024/01/13 02:42:55;;;;;;;9.52;4.60;;;0.70;99.90;;;;;;5059096;28;20043;-72
2024/01/13 02:45:21;;;;;;;8.63;4.30;;;0.50;99.90;;;;;;5067002;28;20040;-72
2024/01/13 02:48:00;;;;;;;8.95;4.07;;;0.50;99.90;;;;;;5068222;28;20038;-73
2024/01/13 02:50:25;;;;;;;9.00;4.15;;;0.50;99.90;;;;;;5068107;28;20102;-72
2024/01/13 02:52:51;;;;;;;9.85;4.78;;;0.90;99.90;;;;;;5068318;28;20055;-72
2024/01/13 02:55:17;;;;;;;6.90;3.75;;;1.00;99.90;;;;;;5061141;28;20035;-72
2024/01/13 02:57:43;;;;;;;7.80;3.85;;;0.90;99.90;;;;;;5070057;28;20032;-73
2024/01/13 03:00:09;;;;;;;7.30;3.53;;;1.30;99.90;;;;;;5067745;28;20040;-72
2024/01/13 03:02:35;;;;;;;6.32;3.20;;;1.30;99.90;;;;;;5069597;28;20405;-73
2024/01/13 03:05:01;;;;;;;14.48;4.72;;;0.90;99.90;;;;;;5064811;28;20401;-73
2024/01/13 03:07:26;;;;;;;9.02;4.15;;;0.50;99.90;;;;;;5071728;28;20042;-72
2024/01/13 03:09:52;;;;;;;9.32;4.32;;;0.50;99.90;;;;;;5058583;28;20518;-73
2024/01/13 03:12:18;;;;;;;8.38;3.80;;;0.60;99.90;;;;;;5066387;28;20134;-72
2024/01/13 03:14:44;;;;;;;7.47;4.05;;;0.50;99.90;;;;;;5073319;28;20037;-72
2024/01/13 03:17:10;;;;;;;9.35;3.83;;;0.60;99.90;;;;;;5070411;28;20035;-73
2024/01/13 03:19:36;;;;;;;7.40;3.90;;;0.50;99.90;;;;;;5064131;28;20040;-72
2024/01/13 03:22:01;;;;;;;8.27;4.32;;;0.40;99.90;;;;;;5071362;28;20587;-72
2024/01/13 03:24:27;;;;;;;6.20;3.63;;;0.30;99.90;;;;;;5071282;28;20112;-73
2024/01/13 03:26:52;;;;;;;9.48;3.50;;;0.30;99.90;;;;;;5073079;28;20036;-73
2024/01/13 03:29:18;;;;;;;10.55;4.60;;;0.40;99.90;;;;;;5057464;28;20036;-72
2024/01/13 03:31:44;;;;;;;5.80;3.15;;;0.50;99.90;;;;;;5065169;28;20128;-73
2024/01/13 03:34:09;;;;;;;7.75;3.58;;;0.40;99.90;;;;;;5064294;28;20024;-72
2024/01/13 03:36:35;;;;;;;10.05;3.63;;;0.20;99.90;;;;;;5066773;28;20593;-72
2024/01/13 03:39:01;;;;;;;7.03;3.33;;;0.20;99.90;;;;;;5067364;28;20485;-73
2024/01/13 03:41:26;;;;;;;7.57;3.97;;;0.20;99.90;;;;;;5070122;28;20483;-72
2024/01/13 03:43:52;;;;;;;7.38;3.78;;;0.20;99.90;;;;;;5073532;28;20052;-72
2024/01/13 03:46:18;;;;;;;6.75;3.13;;;0.20;99.90;;;;;;5068519;28;20040;-72
2024/01/13 03:48:44;;;;;;;6.05;3.20;;;0.30;99.90;;;;;;5071797;28;20031;-72
2024/01/13 03:51:10;;;;;;;6.90;3.38;;;0.20;99.90;;;;;;5073245;28;20028;-72
2024/01/13 03:53:36;;;;;;;6.00;2.97;;;0.50;99.90;;;;;;5067752;28;20028;-72
2024/01/13 03:56:04;;;;;;;5.28;2.92;;;0.50;99.90;;;;;;5068738;28;20043;-72
2024/01/13 03:58:30;;;;;;;5.95;3.05;;;0.60;99.90;;;;;;5067992;28;20038;-72
2024/01/13 04:00:55;;;;;;;8.40;3.08;;;0.70;99.90;;;;;;5067441;28;20567;-72
2024/01/13 04:03:21;;;;;;;5.65;2.85;;;0.80;99.90;;;;;;5068497;28;20810;-72
2024/01/13 04:05:47;;;;;;;5.85;3.28;;;0.80;99.90;;;;;;5064670;28;20044;-72
2024/01/13 04:08:13;;;;;;;5.85;2.97;;;0.70;99.90;;;;;;5061847;28;20055;-73
2024/01/13 04:10:39;;;;;;;6.82;3.03;;;0.60;99.90;;;;;;5065214;28;20047;-73
2024/01/13 04:13:10;;;;;;;9.05;3.38;;;0.40;99.90;;;;;;5065771;28;20359;-73
2024/01/13 04:15:36;;;;;;;5.20;3.10;;;0.50;99.90;;;;;;5052202;28;20036;-73
2024/01/13 04:18:01;;;;;;;6.07;3.35;;;0.40;99.90;;;;;;5065309;28;20039;-73
2024/01/13 04:20:27;;;;;;;7.07;3.05;;;0.30;99.90;;;;;;5066043;28;20039;-73
2024/01/13 04:22:52;;;;;;;5.72;3.08;;;0.50;99.90;;;;;;5056336;28;20068;-72
2024/01/13 04:25:18;;;;;;;6.30;3.40;;;0.50;99.90;;;;;;5058544;28;20032;-72
2024/01/13 04:27:44;;;;;;;6.18;3.65;;;0.50;99.90;;;;;;5053709;28;20029;-73
2024/01/13 04:30:10;;;;;;;8.30;3.10;;;0.50;99.90;;;;;;5066881;28;20052;-73
2024/01/13 04:32:35;;;;;;;5.63;2.70;;;0.40;99.90;;;;;;5064988;28;20473;-72
2024/01/13 04:35:01;;;;;;;4.50;2.38;;;0.50;99.90;;;;;;5064106;28;20123;-72
2024/01/13 04:37:27;;;;;;;6.93;3.13;;;0.50;99.90;;;;;;5057633;28;20028;-72
2024/01/13 04:39:53;;;;;;;5.78;2.80;;;0.60;99.90;;;;;;5067372;28;20040;-72
2024/01/13 04:42:18;;;;;;;5.10;3.08;;;0.50;99.90;;;;;;5060228;28;20032;-73
2024/01/13 04:44:44;;;;;;;7.63;2.85;;;0.50;99.90;;;;;;5065124;28;20114;-73
2024/01/13 04:47:10;;;;;;;6.30;3.05;;;0.30;99.90;;;;;;5054508;28;20035;-72
2024/01/13 04:49:36;;;;;;;5.43;2.90;;;0.20;99.90;;;;;;5056341;28;20039;-73
2024/01/13 04:52:01;;;;;;;6.53;2.95;;;0.00;99.90;;;;;;5062443;28;20047;-74
2024/01/13 04:54:27;;;;;;;6.30;2.50;;;0.00;99.90;;;;;;5055299;28;20044;-71
2024/01/13 04:56:53;;;;;;;5.57;2.40;;;0.20;99.90;;;;;;5066174;28;20036;-71
2024/01/13 04:59:19;;;;;;;5.20;2.47;;;0.20;99.90;;;;;;5052287;28;20032;-71
2024/01/13 05:01:44;;;;;;;5.72;2.47;;;0.30;99.90;;;;;;5057008;28;20121;-72
2024/01/13 05:04:10;;;;;;;4.73;2.40;;;0.40;99.90;;;;;;5065838;28;20107;-71
2024/01/13 05:06:36;;;;;;;4.22;2.17;;;0.50;99.90;;;;;;5059476;28;20097;-71
2024/01/13 05:09:02;;;;;;;4.70;2.47;;;0.70;99.90;;;;;;5061921;28;20072;-71
2024/01/13 05:11:28;;;;;;;8.45;3.30;;;0.80;99.90;;;;;;5061163;28;20417;-71
2024/01/13 05:13:54;;;;;;;5.28;3.13;;;0.40;99.90;;;;;;5064927;28;20037;-71
2024/01/13 05:16:19;;;;;;;5.07;2.65;;;0.10;99.90;;;;;;5059598;28;20609;-71
2024/01/13 05:18:45;;;;;;;5.22;2.50;;;0.00;99.90;;;;;;5064506;28;20046;-71
2024/01/13 05:21:11;;;;;;;6.00;3.10;;;0.00;99.90;;;;;;5055357;28;20040;-71
2024/01/13 05:23:36;;;;;;;6.50;3.30;;;-0.10;99.90;;;;;;5059445;28;20059;-71
2024/01/13 05:26:02;;;;;;;7.50;3.83;;;-0.50;99.90;;;;;;5058598;28;20032;-71
2024/01/13 05:28:28;;;;;;;6.20;2.63;;;-0.50;99.90;;;;;;5065281;28;20058;-71
2024/01/13 05:30:54;;;;;;;6.38;2.75;;;-0.20;99.90;;;;;;5066012;28;20044;-71
2024/01/13 05:33:19;;;;;;;4.20;2.35;;;-0.20;99.90;;;;;;5064452;28;20036;-71
2024/01/13 05:35:45;;;;;;;5.15;2.28;;;-0.10;99.90;;;;;;5062793;28;20735;-71
2024/01/13 05:38:11;;;;;;;8.63;4.32;;;-0.20;99.90;;;;;;5066721;28;20660;-71
2024/01/13 05:40:40;;;;;;;8.05;3.85;;;-0.40;99.90;;;;;;5053020;28;20037;-71
2024/01/13 05:43:07;;;;;;;7.20;3.42;;;-0.60;99.90;;;;;;5069923;28;20676;-71
2024/01/13 05:45:33;;;;;;;5.40;2.77;;;-0.50;99.90;;;;;;5063461;28;20027;-71
2024/01/13 05:48:00;;;;;;;6.15;2.60;;;-0.70;99.90;;;;;;5058122;28;20028;-71
2024/01/13 05:50:27;;;;;;;4.57;2.33;;;-0.60;99.90;;;;;;5056795;28;20458;-71
2024/01/13 05:52:53;;;;;;;6.07;2.72;;;-0.50;99.90;;;;;;5064772;28;20048;-71
2024/01/13 05:55:18;;;;;;;17.27;7.40;;;-0.70;99.90;;;;;;5067159;28;20093;-71
2024/01/13 05:57:44;;;;;;;20.40;9.73;;;-0.70;99.90;;;;;;5070685;28;20074;-71
2024/01/13 06:00:10;;;;;;;15.07;7.15;;;-0.70;99.90;;;;;;5058948;28;20478;-71
2024/01/13 06:02:35;;;;;;;11.75;5.88;;;-0.80;99.90;;;;;;5063521;28;20101;-71
2024/01/13 06:05:01;;;;;;;6.57;3.70;;;-0.90;99.90;;;;;;5067906;28;20071;-71
2024/01/13 06:07:27;;;;;;;4.50;2.30;;;-0.90;99.90;;;;;;5067211;28;20453;-71
2024/01/13 06:09:53;;;;;;;5.90;3.13;;;-0.20;99.90;;;;;;5056700;28;20080;-72
2024/01/13 06:12:20;;;;;;;4.82;2.30;;;0.10;99.90;;;;;;5061640;28;20032;-71
2024/01/13 06:14:46;;;;;;;5.95;3.15;;;0.10;99.90;;;;;;5067578;28;20041;-71
2024/01/13 06:17:12;;;;;;;6.07;3.03;;;-0.40;99.90;;;;;;5064556;28;21269;-71
2024/01/13 06:19:38;;;;;;;4.90;2.22;;;-0.50;99.90;;;;;;5056782;28;21159;-71
2024/01/13 06:22:04;;;;;;;5.32;2.63;;;-0.20;99.90;;;;;;5055902;28;20032;-73
2024/01/13 06:24:29;;;;;;;5.40;2.90;;;0.00;99.90;;;;;;5057570;28;20077;-73
2024/01/13 06:26:55;;;;;;;5.05;2.35;;;-0.30;99.90;;;;;;5057340;28;20033;-73
2024/01/13 06:29:21;;;;;;;6.30;2.10;;;0.00;99.90;;;;;;5056469;28;20091;-71
2024/01/13 06:31:46;;;;;;;6.07;1.88;;;0.10;99.90;;;;;;5063987;28;20032;-71
2024/01/13 06:34:12;;;;;;;6.07;2.10;;;0.10;99.90;;;;;;5062021;28;20088;-71
2024/01/13 06:36:38;;;;;;;4.40;1.67;;;0.20;99.90;;;;;;5059697;28;20035;-71
2024/01/13 06:39:04;;;;;;;4.38;1.50;;;0.10;99.90;;;;;;5053062;28;20032;-71
2024/01/13 06:41:31;;;;;;;4.45;2.05;;;0.20;99.90;;;;;;5063693;28;20028;-71
2024/01/13 06:43:56;;;;;;;3.10;1.77;;;0.30;99.90;;;;;;5056741;28;20768;-71
2024/01/13 06:46:22;;;;;;;4.38;2.08;;;0.30;99.90;;;;;;5050330;28;20778;-71
2024/01/13 06:48:48;;;;;;;5.07;2.10;;;0.10;99.90;;;;;;5052216;28;20039;-71
2024/01/13 06:51:14;;;;;;;5.05;1.95;;;0.10;99.90;;;;;;5051374;28;20131;-71
2024/01/13 06:53:40;;;;;;;5.20;2.17;;;0.20;99.90;;;;;;5056098;28;20067;-71
2024/01/13 06:56:06;;;;;;;7.13;2.47;;;0.20;99.90;;;;;;5062375;28;20103;-71
2024/01/13 06:58:31;;;;;;;9.65;2.65;;;0.10;99.90;;;;;;5057566;28;21491;-72
2024/01/13 07:00:58;;;;;;;6.70;3.17;;;0.10;99.90;;;;;;5051777;28;20163;-71
2024/01/13 07:03:23;;;;;;;10.65;2.90;;;-0.10;99.90;;;;;;5055214;28;21225;-71
2024/01/13 07:05:49;;;;;;;6.45;2.80;;;-0.30;99.90;;;;;;5058672;28;21751;-71
2024/01/13 07:08:15;;;;;;;6.93;2.90;;;-0.60;99.90;;;;;;5054374;28;20032;-72
2024/01/13 07:10:40;;;;;;;8.57;3.80;;;-0.50;99.90;;;;;;5058149;28;20135;-71
2024/01/13 07:13:06;;;;;;;5.70;3.03;;;-0.50;99.90;;;;;;5052277;28;20490;-72
2024/01/13 07:15:32;;;;;;;6.85;3.88;;;-0.70;99.90;;;;;;5065919;28;20113;-72
2024/01/13 07:17:59;;;;;;;6.83;3.17;;;-0.80;99.90;;;;;;5058722;28;20591;-71
2024/01/13 07:20:26;;;;;;;5.00;2.50;;;-0.70;99.90;;;;;;5054500;28;20079;-71
2024/01/13 07:22:51;;;;;;;6.40;3.40;;;-0.80;99.90;;;;;;5059180;28;20114;-71
2024/01/13 07:25:17;;;;;;;9.00;4.47;;;-0.70;99.90;;;;;;5049870;28;20494;-71
2024/01/13 07:27:43;;;;;;;6.97;3.77;;;-1.00;99.90;;;;;;5057626;28;20043;-71
2024/01/13 07:30:09;;;;;;;5.30;3.23;;;-0.90;99.90;;;;;;5058133;28;20040;-71
2024/01/13 07:32:35;;;;;;;5.07;2.70;;;-0.70;99.90;;;;;;5054233;28;20032;-72
2024/01/13 07:35:00;;;;;;;4.03;2.17;;;-0.50;99.90;;;;;;5057757;28;20032;-76
2024/01/13 07:37:26;;;;;;;4.90;2.70;;;-0.40;99.90;;;;;;5060111;28;20137;-74
2024/01/13 07:39:51;;;;;;;8.20;2.20;;;-0.30;99.90;;;;;;5057765;28;21041;-75
2024/01/13 07:42:17;;;;;;;4.78;2.78;;;-0.50;99.90;;;;;;5046578;28;20107;-75
2024/01/13 07:44:43;;;;;;;6.75;1.90;;;-0.40;99.90;;;;;;5054743;28;20037;-75
2024/01/13 07:47:09;;;;;;;5.33;1.87;;;-0.30;99.90;;;;;;5063975;28;20888;-75
2024/01/13 07:49:34;;;;;;;5.17;2.43;;;-0.30;99.90;;;;;;5049317;28;20442;-76
2024/01/13 07:52:01;;;;;;;7.43;3.27;;;-0.50;99.90;;;;;;5055814;28;20028;-75
2024/01/13 07:54:26;;;;;;;6.00;3.40;;;-0.40;99.90;;;;;;5051101;28;20036;-76
2024/01/13 07:56:53;;;;;;;6.72;3.67;;;-0.30;99.90;;;;;;5056345;28;20032;-76
2024/01/13 07:59:18;;;;;;;6.97;3.63;;;-0.30;99.90;;;;;;5057887;28;20032;-81
2024/01/13 08:01:45;;;;;;;6.20;2.97;;;-0.30;99.90;;;;;;5047562;28;20085;-76
2024/01/13 08:04:12;;;;;;;6.27;3.30;;;-0.30;99.90;;;;;;5053985;28;20036;-76
2024/01/13 08:06:38;;;;;;;8.17;3.50;;;-0.20;99.90;;;;;;5051995;28;20085;-76
2024/01/13 08:09:04;;;;;;;7.20;3.63;;;-0.30;99.90;;;;;;5055997;28;20054;-73
2024/01/13 08:11:30;;;;;;;60.63;25.83;;;-0.40;99.90;;;;;;5054190;28;20048;-74
2024/01/13 08:13:58;;;;;;;27.48;13.85;;;-0.30;99.90;;;;;;5058823;28;20035;-75
2024/01/13 08:16:24;;;;;;;14.43;8.30;;;-0.40;99.90;;;;;;5052739;28;20484;-76
2024/01/13 08:18:49;;;;;;;8.68;4.50;;;-0.30;99.90;;;;;;5056429;28;20094;-75
2024/01/13 08:21:15;;;;;;;8.00;5.10;;;-0.20;99.90;;;;;;5053458;28;20020;-75
2024/01/13 08:23:41;;;;;;;8.85;4.75;;;-0.10;99.90;;;;;;5059237;28;20442;-75
2024/01/13 08:26:07;;;;;;;7.85;3.72;;;-0.10;99.90;;;;;;5055281;28;20024;-76
2024/01/13 08:28:33;;;;;;;7.45;4.05;;;-0.20;99.90;;;;;;5057365;28;20126;-75
2024/01/13 08:30:59;;;;;;;5.07;3.88;;;-0.20;99.90;;;;;;5053277;28;20041;-75
2024/01/13 08:33:24;;;;;;;7.82;3.22;;;-0.20;99.90;;;;;;5056989;28;20032;-75
2024/01/13 08:35:50;;;;;;;8.45;3.05;;;-0.10;99.90;;;;;;5058908;28;20036;-75
2024/01/13 08:38:16;;;;;;;5.55;2.15;;;0.20;99.90;;;;;;5057887;28;20983;-75
2024/01/13 08:40:44;;;;;;;4.35;2.40;;;0.30;99.90;;;;;;5056982;28;20466;-76
2024/01/13 08:43:09;;;;;;;5.72;2.45;;;0.30;99.90;;;;;;5055602;28;20501;-76
2024/01/13 08:45:35;;;;;;;5.43;2.20;;;0.50;99.90;;;;;;5059559;28;20040;-75
2024/01/13 08:48:01;;;;;;;4.22;1.88;;;0.40;99.90;;;;;;5067016;28;20107;-76
2024/01/13 08:50:27;;;;;;;5.10;2.15;;;0.50;99.90;;;;;;5068804;28;20043;-75
2024/01/13 08:52:55;;;;;;;4.97;2.13;;;0.40;99.90;;;;;;5058901;28;20141;-76
2024/01/13 08:55:21;;;;;;;5.22;2.80;;;0.40;99.90;;;;;;5053611;28;21025;-75
2024/01/13 08:57:47;;;;;;;5.15;2.55;;;0.10;99.90;;;;;;5053840;28;20037;-76
2024/01/13 09:00:13;;;;;;;5.45;2.70;;;-0.10;99.90;;;;;;5053916;28;20380;-74
2024/01/13 09:02:39;;;;;;;4.97;2.65;;;-0.10;99.90;;;;;;5055853;28;20051;-73
2024/01/13 09:05:06;;;;;;;4.27;1.93;;;0.00;99.90;;;;;;5065287;28;20067;-73
2024/01/13 09:07:33;;;;;;;3.60;1.63;;;0.00;99.90;;;;;;5055202;28;20776;-75
2024/01/13 09:09:59;;;;;;;3.70;1.65;;;0.10;99.90;;;;;;5056440;28;20404;-74
2024/01/13 09:12:25;;;;;;;4.32;1.80;;;0.20;99.90;;;;;;5054015;28;20039;-75
2024/01/13 09:14:51;;;;;;;3.67;1.70;;;0.20;99.90;;;;;;5054740;28;20115;-74
2024/01/13 09:17:17;;;;;;;4.72;2.13;;;0.10;99.90;;;;;;5056848;28;20532;-74
2024/01/13 09:19:42;;;;;;;4.60;1.73;;;-0.10;99.90;;;;;;5061095;28;20036;-74
2024/01/13 09:22:08;;;;;;;3.55;1.70;;;-0.10;99.90;;;;;;5054523;28;20356;-77
2024/01/13 09:24:34;;;;;;;3.73;1.90;;;0.20;99.90;;;;;;5069170;28;20478;-76
2024/01/13 09:27:00;;;;;;;4.40;2.00;;;0.30;99.90;;;;;;5055271;28;20032;-77
2024/01/13 09:29:25;;;;;;;5.37;1.90;;;0.30;99.90;;;;;;5056103;28;20067;-76
2024/01/13 09:31:51;;;;;;;4.97;2.05;;;0.30;99.90;;;;;;5055216;28;20033;-76
2024/01/13 09:34:17;;;;;;;4.65;1.98;;;0.30;99.90;;;;;;5059092;28;20110;-77
2024/01/13 09:36:44;;;;;;;3.97;2.20;;;0.40;99.90;;;;;;5055414;28;20494;-76
2024/01/13 09:39:14;;;;;;;5.28;2.40;;;0.40;99.90;;;;;;5054754;28;20449;-74
2024/01/13 09:41:47;;;;;;;5.68;2.28;;;0.40;99.90;;;;;;5055125;28;20033;-75
2024/01/13 09:44:25;;;;;;;6.00;2.05;;;0.30;99.90;;;;;;5053349;28;20429;-76
2024/01/13 09:46:52;;;;;;;6.22;2.80;;;0.30;99.90;;;;;;5053498;28;20040;-75
2024/01/13 09:49:20;;;;;;;4.75;2.17;;;0.10;99.90;;;;;;5054433;28;20040;-77
2024/01/13 09:51:46;;;;;;;7.20;2.50;;;0.10;99.90;;;;;;5056411;28;20043;-77
2024/01/13 09:54:21;;;;;;;5.18;2.17;;;0.00;99.90;;;;;;5061810;28;20037;-77
2024/01/13 09:56:47;;;;;;;6.40;3.07;;;0.10;99.90;;;;;;5053918;28;20040;-76
2024/01/13 09:59:14;;;;;;;5.45;2.20;;;0.00;99.90;;;;;;5061680;28;20815;-77
2024/01/13 10:01:40;;;;;;;6.53;2.13;;;0.10;99.90;;;;;;5053463;28;20029;-77
2024/01/13 10:04:06;;;;;;;6.68;2.20;;;0.20;99.90;;;;;;5059864;28;20046;-76
2024/01/13 10:06:33;;;;;;;4.50;2.05;;;0.20;99.90;;;;;;5062370;28;20124;-80
2024/01/13 10:08:59;;;;;;;5.07;2.20;;;0.30;99.90;;;;;;5060059;28;20036;-76
2024/01/13 10:11:25;;;;;;;4.63;2.23;;;0.30;99.90;;;;;;5048631;28;20139;-76
2024/01/13 10:14:01;;;;;;;6.57;1.70;;;0.40;99.90;;;;;;5057558;28;20058;-76
2024/01/13 10:16:29;;;;;;;5.13;2.47;;;0.70;99.90;;;;;;5057741;28;20041;-76
2024/01/13 10:18:57;;;;;;;4.33;2.00;;;0.60;99.90;;;;;;5054488;28;20037;-77
2024/01/13 10:21:25;;;;;;;5.35;2.28;;;0.60;99.90;;;;;;5066349;28;20596;-78
2024/01/13 10:23:55;;;;;;;4.68;1.80;;;0.60;99.90;;;;;;5055577;28;20030;-77
2024/01/13 10:26:21;;;;;;;4.22;2.13;;;0.50;99.90;;;;;;5056338;28;20044;-78
2024/01/13 10:28:48;;;;;;;5.25;2.60;;;0.60;99.90;;;;;;5063676;28;21095;-78
2024/01/13 10:31:16;;;;;;;5.70;2.50;;;0.90;99.90;;;;;;5064159;28;20089;-75
2024/01/13 10:33:45;;;;;;;4.75;2.22;;;1.00;99.90;;;;;;5055798;28;20107;-81
2024/01/13 10:36:11;;;;;;;5.38;2.67;;;1.00;99.90;;;;;;5058168;28;20503;-78
2024/01/13 10:38:39;;;;;;;5.28;2.50;;;0.90;99.90;;;;;;5059497;28;20051;-77
2024/01/13 10:41:07;;;;;;;5.95;3.38;;;0.90;99.90;;;;;;5059075;28;20036;-75
2024/01/13 10:43:35;;;;;;;6.68;2.92;;;0.90;99.90;;;;;;5056745;28;20037;-76
2024/01/13 10:46:05;;;;;;;6.15;2.72;;;0.90;99.90;;;;;;5052867;28;20036;-74
2024/01/13 10:48:39;;;;;;;5.68;2.72;;;1.00;99.90;;;;;;5057914;28;20497;-76
2024/01/13 10:51:31;;;;;;;4.22;2.35;;;1.10;99.90;;;;;;5060263;28;20075;-76
2024/01/13 10:53:59;;;;;;;6.25;2.60;;;1.30;99.90;;;;;;5067735;28;21452;-75
2024/01/13 10:56:27;;;;;;;4.32;1.60;;;1.60;99.90;;;;;;5059727;28;20448;-75
2024/01/13 10:58:54;;;;;;;3.28;1.80;;;1.60;99.90;;;;;;5066810;28;20032;-78
2024/01/13 11:01:20;;;;;;;6.15;3.40;;;1.70;99.90;;;;;;5063542;28;20040;-79
2024/01/13 11:03:49;;;;;;;14.85;6.32;;;1.80;99.90;;;;;;5062589;28;20396;-78
2024/01/13 11:06:15;;;;;;;14.00;7.47;;;2.10;99.90;;;;;;5061658;28;20029;-77
2024/01/13 11:08:42;;;;;;;8.45;4.32;;;2.30;99.90;;;;;;5057211;28;20096;-78
2024/01/13 11:11:10;;;;;;;7.47;2.92;;;2.60;99.90;;;;;;5062280;28;20056;-77
2024/01/13 11:13:44;;;;;;;5.78;3.20;;;2.70;99.90;;;;;;5057195;28;20137;-77
2024/01/13 11:16:14;;;;;;;6.38;2.70;;;2.60;99.50;;;;;;5060493;28;20656;-76
2024/01/13 11:18:46;;;;;;;6.85;3.22;;;2.50;99.90;;;;;;5063693;28;20119;-76
2024/01/13 11:21:12;;;;;;;5.85;3.38;;;2.60;98.70;;;;;;5055828;28;20098;-76
2024/01/13 11:23:58;;;;;;;5.45;3.17;;;2.80;99.00;;;;;;5063199;28;20101;-77
2024/01/13 11:26:43;;;;;;;6.57;3.22;;;2.70;99.90;;;;;;5059059;28;21265;-77
2024/01/13 11:29:28;;;;;;;7.00;3.03;;;2.70;99.90;;;;;;5065242;28;20062;-76
2024/01/13 11:31:58;;;;;;;;;;;2.80;99.30;;;;;;5059666;28;20040;-76
2024/01/13 11:34:26;;;;;;;4.57;2.53;;;2.90;99.30;;;;;;5066418;28;19923;-76
2024/01/13 11:36:57;;;;;;;4.63;2.33;;;2.90;99.10;;;;;;5057298;28;20691;-78
2024/01/13 11:39:22;;;;;;;7.95;3.05;;;3.00;98.50;;;;;;5064392;28;20067;-78
2024/01/13 11:41:57;;;;;;;4.78;2.30;;;3.10;98.70;;;;;;5065032;28;20482;-78
2024/01/13 11:44:34;;;;;;;4.15;2.20;;;3.20;98.40;;;;;;5072797;28;20028;-78
2024/01/13 11:47:11;;;;;;;7.68;3.85;;;3.30;98.50;;;;;;5065600;28;20036;-76
2024/01/13 11:49:43;;;;;;;5.00;2.63;;;3.40;98.30;;;;;;5060891;28;20053;-76
2024/01/13 11:52:15;;;;;;;8.18;4.93;;;3.50;98.20;;;;;;5059950;28;20024;-76
2024/01/13 11:54:43;;;;;;;7.38;4.50;;;3.80;97.80;;;;;;5056177;28;20822;-76
2024/01/13 11:57:10;;;;;;;11.55;3.75;;;4.00;98.00;;;;;;5058927;28;20032;-78
2024/01/13 11:59:36;;;;;;;6.28;3.03;;;4.10;97.30;;;;;;5060393;28;20044;-76
2024/01/13 12:02:02;;;;;;;5.15;2.85;;;3.90;97.30;;;;;;5061515;28;20042;-76
2024/01/13 12:04:29;;;;;;;6.13;2.83;;;4.00;97.50;;;;;;5066810;28;20067;-78
2024/01/13 12:06:56;;;;;;;5.45;2.72;;;4.00;96.90;;;;;;5054356;28;20078;-78
2024/01/13 12:09:26;;;;;;;6.00;2.58;;;4.20;97.40;;;;;;5058569;28;20055;-76
2024/01/13 12:11:59;;;;;;;10.82;3.17;;;4.20;97.20;;;;;;5052991;28;20122;-76
2024/01/13 12:14:28;;;;;;;7.90;4.00;;;4.20;97.40;;;;;;5061146;28;20037;-76
2024/01/13 12:16:58;;;;;;;22.90;13.10;;;4.30;97.10;;;;;;5063305;28;20068;-76
2024/01/13 12:19:26;;;;;;;12.73;5.82;;;4.20;96.70;;;;;;5062059;28;20067;-76
2024/01/13 12:21:53;;;;;;;13.98;7.30;;;4.10;96.90;;;;;;5061035;28;20028;-76
2024/01/13 12:24:28;;;;;;;6.20;2.83;;;4.30;97.10;;;;;;5059585;28;20036;-76
2024/01/13 12:26:54;;;;;;;6.30;2.95;;;4.30;97.00;;;;;;5061583;28;20033;-76
2024/01/13 12:29:30;;;;;;;5.82;2.83;;;4.40;97.00;;;;;;5057340;28;21104;-76
2024/01/13 12:31:57;;;;;;;7.45;3.85;;;4.40;96.70;;;;;;5061792;28;20381;-76
2024/01/13 12:34:22;;;;;;;9.18;5.25;;;4.30;96.40;;;;;;5066872;28;20044;-76
2024/01/13 12:36:49;;;;;;;15.43;8.38;;;4.50;97.00;;;;;;5061146;28;20039;-76
2024/01/13 12:39:15;;;;;;;11.75;5.68;;;4.60;96.50;;;;;;5068111;28;20572;-76
2024/01/13 12:41:41;;;;;;;112.10;62.25;;;4.60;96.60;;;;;;5064556;28;21462;-76
2024/01/13 12:44:07;;;;;;;77.97;44.63;;;4.60;96.90;;;;;;5058529;28;20391;-76
2024/01/13 12:46:36;;;;;;;45.78;28.25;;;4.90;96.20;;;;;;5059042;28;20097;-76
2024/01/13 12:49:18;;;;;;;25.08;14.85;;;4.90;96.20;;;;;;5060204;28;20112;-76
2024/01/13 12:51:46;;;;;;;13.95;7.93;;;4.70;96.10;;;;;;5059997;28;20906;-76